sensor_id;sensor_type;location;lat;lon;timestamp;temperature;humidity
19000;DHT22;9633;50.980;13.850;2023-04-22T00:00:18;5.00;99.90
19000;DHT22;9633;50.980;13.850;2023-04-22T00:01:51;5.00;99.90
19000;DHT22;9633;50.980;13.850;2023-04-22T00:03:23;4.90;99.90
19000;DHT22;9633;50.980;13.850;2023-04-22T00:04:56;4.90;99.90
19000;DHT22;9633;50.980;13.850;2023-04-22T00:06:29;4.80;99.90
19000;DHT22;9633;50.980;13.850;2023-04-22T00:08:04;4.80;99.90
19000;DHT22;9633;50.980;13.850;2023-04-22T00:09:37;4.80;99.90
19000;DHT22;9633;50.980;13.850;2023-04-22T00:11:11;4.80;99.90
19000;DHT22;9633;50.980;13.850;2023-04-22T00:12:44;4.70;99.90
19000;DHT22;9633;50.980;13.850;2023-04-22T00:14:17;4.70;99.90
19000;DHT22;9633;50.980;13.850;2023-04-22T00:15:50;4.60;99.90
19000;DHT22;9633;50.980;13.850;2023-04-22T00:17:22;4.70;99.90
19000;DHT22;9633;50.980;13.850;2023-04-22T00:18:56;4.60;99.90
19000;DHT22;9633;50.980;13.850;2023-04-22T00:20:28;4.60;99.90
19000;DHT22;9633;50.980;13.850;2023-04-22T00:22:03;4.60;99.90
19000;DHT22;9633;50.980;13.850;2023-04-22T00:23:37;4.70;99.90
19000;DHT22;9633;50.980;13.850;2023-04-22T00:25:09;4.70;99.90
19000;DHT22;9633;50.980;13.850;2023-04-22T00:26:42;4.80;99.90
19000;DHT22;9633;50.980;13.850;2023-04-22T00:28:15;4.80;99.90
19000;DHT22;9633;50.980;13.850;2023-04-22T00:29:49;4.80;99.90
19000;DHT22;9633;50.980;13.850;2023-04-22T00:31:22;4.90;99.90
19000;DHT22;9633;50.980;13.850;2023-04-22T00:32:54;4.90;99.90
19000;DHT22;9633;50.980;13.850;2023-04-22T00:34:27;5.10;99.90
19000;DHT22;9633;50.980;13.850;2023-04-22T00:35:59;5.30;99.90
19000;DHT22;9633;50.980;13.850;2023-04-22T00:37:32;5.50;99.90
19000;DHT22;9633;50.980;13.850;2023-04-22T00:39:07;5.80;99.90
19000;DHT22;9633;50.980;13.850;2023-04-22T00:40:41;6.00;99.90
19000;DHT22;9633;50.980;13.850;2023-04-22T00:42:13;6.30;99.90
19000;DHT22;9633;50.980;13.850;2023-04-22T00:43:46;6.40;99.90
19000;DHT22;9633;50.980;13.850;2023-04-22T00:45:20;6.50;99.90
19000;DHT22;9633;50.980;13.850;2023-04-22T00:46:53;6.60;99.90
19000;DHT22;9633;50.980;13.850;2023-04-22T00:48:28;6.70;99.90
19000;DHT22;9633;50.980;13.850;2023-04-22T00:50:02;6.70;99.90
19000;DHT22;9633;50.980;13.850;2023-04-22T00:51:35;6.80;99.90
19000;DHT22;9633;50.980;13.850;2023-04-22T00:53:08;6.70;99.90
19000;DHT22;9633;50.980;13.850;2023-04-22T00:54:42;6.50;99.90
19000;DHT22;9633;50.980;13.850;2023-04-22T00:56:16;6.40;99.90
19000;DHT22;9633;50.980;13.850;2023-04-22T00:57:49;6.40;99.90
19000;DHT22;9633;50.980;13.850;2023-04-22T00:59:24;6.40;99.90
19000;DHT22;9633;50.980;13.850;2023-04-22T01:00:58;6.30;99.90
19000;DHT22;9633;50.980;13.850;2023-04-22T01:02:32;6.10;99.90
19000;DHT22;9633;50.980;13.850;2023-04-22T01:04:04;6.00;99.90
19000;DHT22;9633;50.980;13.850;2023-04-22T01:05:38;5.80;99.90
19000;DHT22;9633;50.980;13.850;2023-04-22T01:07:12;5.80;99.90
19000;DHT22;9633;50.980;13.850;2023-04-22T01:08:44;5.60;99.90
19000;DHT22;9633;50.980;13.850;2023-04-22T01:10:19;5.50;99.90
19000;DHT22;9633;50.980;13.850;2023-04-22T01:11:53;5.40;99.90
19000;DHT22;9633;50.980;13.850;2023-04-22T01:13:27;5.20;99.90
19000;DHT22;9633;50.980;13.850;2023-04-22T01:15:01;5.10;99.90
19000;DHT22;9633;50.980;13.850;2023-04-22T01:16:36;5.00;99.90
19000;DHT22;9633;50.980;13.850;2023-04-22T01:18:10;4.90;99.90
19000;DHT22;9633;50.980;13.850;2023-04-22T01:19:43;4.80;99.90
19000;DHT22;9633;50.980;13.850;2023-04-22T01:21:15;4.80;99.90
19000;DHT22;9633;50.980;13.850;2023-04-22T01:22:52;4.70;99.90
19000;DHT22;9633;50.980;13.850;2023-04-22T01:24:29;4.70;99.90
19000;DHT22;9633;50.980;13.850;2023-04-22T01:26:03;4.60;99.90
19000;DHT22;9633;50.980;13.850;2023-04-22T01:27:36;4.60;99.90
19000;DHT22;9633;50.980;13.850;2023-04-22T01:29:10;4.70;99.90
19000;DHT22;9633;50.980;13.850;2023-04-22T01:30:43;4.60;99.90
19000;DHT22;9633;50.980;13.850;2023-04-22T01:32:16;4.50;99.90
19000;DHT22;9633;50.980;13.850;2023-04-22T01:33:49;4.50;99.90
19000;DHT22;9633;50.980;13.850;2023-04-22T01:35:23;4.50;99.90
19000;DHT22;9633;50.980;13.850;2023-04-22T01:36:56;4.40;99.90
19000;DHT22;9633;50.980;13.850;2023-04-22T01:38:28;4.40;99.90
19000;DHT22;9633;50.980;13.850;2023-04-22T01:40:08;4.40;99.90
19000;DHT22;9633;50.980;13.850;2023-04-22T01:41:42;4.30;99.90
19000;DHT22;9633;50.980;13.850;2023-04-22T01:43:15;4.30;99.90
19000;DHT22;9633;50.980;13.850;2023-04-22T01:44:48;4.30;99.90
19000;DHT22;9633;50.980;13.850;2023-04-22T01:46:20;4.30;99.90
19000;DHT22;9633;50.980;13.850;2023-04-22T01:47:54;4.30;99.90
19000;DHT22;9633;50.980;13.850;2023-04-22T01:49:27;4.20;99.90
19000;DHT22;9633;50.980;13.850;2023-04-22T01:51:00;4.20;99.90
19000;DHT22;9633;50.980;13.850;2023-04-22T01:52:34;4.20;99.90
19000;DHT22;9633;50.980;13.850;2023-04-22T01:54:09;4.10;99.90
19000;DHT22;9633;50.980;13.850;2023-04-22T01:55:43;4.20;99.90
19000;DHT22;9633;50.980;13.850;2023-04-22T01:57:17;4.30;99.90
19000;DHT22;9633;50.980;13.850;2023-04-22T01:58:50;4.40;99.90
19000;DHT22;9633;50.980;13.850;2023-04-22T02:00:23;4.50;99.90
19000;DHT22;9633;50.980;13.850;2023-04-22T02:01:56;4.60;99.90
19000;DHT22;9633;50.980;13.850;2023-04-22T02:03:29;4.60;99.90
19000;DHT22;9633;50.980;13.850;2023-04-22T02:05:04;4.50;99.90
19000;DHT22;9633;50.980;13.850;2023-04-22T02:06:38;4.50;99.90
19000;DHT22;9633;50.980;13.850;2023-04-22T02:08:11;4.40;99.90
19000;DHT22;9633;50.980;13.850;2023-04-22T02:09:44;4.30;99.90
19000;DHT22;9633;50.980;13.850;2023-04-22T02:11:22;4.20;99.90
19000;DHT22;9633;50.980;13.850;2023-04-22T02:12:55;4.10;99.90
19000;DHT22;9633;50.980;13.850;2023-04-22T02:14:28;4.10;99.90
19000;DHT22;9633;50.980;13.850;2023-04-22T02:16:07;4.10;99.90
19000;DHT22;9633;50.980;13.850;2023-04-22T02:17:40;4.20;99.90
19000;DHT22;9633;50.980;13.850;2023-04-22T02:19:16;4.10;99.90
19000;DHT22;9633;50.980;13.850;2023-04-22T02:20:49;4.10;99.90
19000;DHT22;9633;50.980;13.850;2023-04-22T02:22:22;4.10;99.90
19000;DHT22;9633;50.980;13.850;2023-04-22T02:23:56;4.10;99.90
19000;DHT22;9633;50.980;13.850;2023-04-22T02:25:32;4.30;99.90
19000;DHT22;9633;50.980;13.850;2023-04-22T02:27:05;4.50;99.90
19000;DHT22;9633;50.980;13.850;2023-04-22T02:28:39;4.70;99.90
19000;DHT22;9633;50.980;13.850;2023-04-22T02:30:12;4.80;99.90
19000;DHT22;9633;50.980;13.850;2023-04-22T02:31:45;5.00;99.90
19000;DHT22;9633;50.980;13.850;2023-04-22T02:33:19;5.20;99.90
19000;DHT22;9633;50.980;13.850;2023-04-22T02:34:52;5.20;99.90
19000;DHT22;9633;50.980;13.850;2023-04-22T02:36:25;5.40;99.90
19000;DHT22;9633;50.980;13.850;2023-04-22T02:37:59;5.60;99.90
19000;DHT22;9633;50.980;13.850;2023-04-22T02:39:32;5.70;99.90
19000;DHT22;9633;50.980;13.850;2023-04-22T02:41:05;5.70;99.90
19000;DHT22;9633;50.980;13.850;2023-04-22T02:42:42;5.70;99.90
19000;DHT22;9633;50.980;13.850;2023-04-22T02:44:14;5.80;99.90
19000;DHT22;9633;50.980;13.850;2023-04-22T02:45:47;5.80;99.90
19000;DHT22;9633;50.980;13.850;2023-04-22T02:47:20;5.70;99.90
19000;DHT22;9633;50.980;13.850;2023-04-22T02:48:52;5.70;99.90
19000;DHT22;9633;50.980;13.850;2023-04-22T02:50:25;5.70;99.90
19000;DHT22;9633;50.980;13.850;2023-04-22T02:51:59;5.50;99.90
19000;DHT22;9633;50.980;13.850;2023-04-22T02:53:32;5.30;99.90
19000;DHT22;9633;50.980;13.850;2023-04-22T02:55:05;5.10;99.90
19000;DHT22;9633;50.980;13.850;2023-04-22T02:56:38;5.00;99.90
19000;DHT22;9633;50.980;13.850;2023-04-22T02:58:11;5.00;99.90
19000;DHT22;9633;50.980;13.850;2023-04-22T02:59:45;4.90;99.90
19000;DHT22;9633;50.980;13.850;2023-04-22T03:01:21;4.80;99.90
19000;DHT22;9633;50.980;13.850;2023-04-22T03:02:54;4.60;99.90
19000;DHT22;9633;50.980;13.850;2023-04-22T03:04:34;4.50;99.90
19000;DHT22;9633;50.980;13.850;2023-04-22T03:06:06;4.40;99.90
19000;DHT22;9633;50.980;13.850;2023-04-22T03:07:39;4.30;99.90
19000;DHT22;9633;50.980;13.850;2023-04-22T03:09:12;4.30;99.90
19000;DHT22;9633;50.980;13.850;2023-04-22T03:10:46;4.20;99.90
19000;DHT22;9633;50.980;13.850;2023-04-22T03:12:18;4.20;99.90
19000;DHT22;9633;50.980;13.850;2023-04-22T03:13:53;4.20;99.90
19000;DHT22;9633;50.980;13.850;2023-04-22T03:15:26;4.00;99.90
19000;DHT22;9633;50.980;13.850;2023-04-22T03:16:59;4.00;99.90
19000;DHT22;9633;50.980;13.850;2023-04-22T03:18:32;3.90;99.90
19000;DHT22;9633;50.980;13.850;2023-04-22T03:20:06;3.90;99.90
19000;DHT22;9633;50.980;13.850;2023-04-22T03:21:38;3.90;99.90
19000;DHT22;9633;50.980;13.850;2023-04-22T03:23:11;3.80;99.90
19000;DHT22;9633;50.980;13.850;2023-04-22T03:24:44;3.80;99.90
19000;DHT22;9633;50.980;13.850;2023-04-22T03:26:17;3.90;99.90
19000;DHT22;9633;50.980;13.850;2023-04-22T03:27:50;3.90;99.90
19000;DHT22;9633;50.980;13.850;2023-04-22T03:29:25;3.90;99.90
19000;DHT22;9633;50.980;13.850;2023-04-22T03:30:58;3.80;99.90
19000;DHT22;9633;50.980;13.850;2023-04-22T03:32:31;3.80;99.90
19000;DHT22;9633;50.980;13.850;2023-04-22T03:34:22;4.00;99.90
19000;DHT22;9633;50.980;13.850;2023-04-22T03:35:55;4.20;99.90
19000;DHT22;9633;50.980;13.850;2023-04-22T03:37:28;4.30;99.90
19000;DHT22;9633;50.980;13.850;2023-04-22T03:39:01;4.10;99.90
19000;DHT22;9633;50.980;13.850;2023-04-22T03:40:36;4.20;99.90
19000;DHT22;9633;50.980;13.850;2023-04-22T03:42:17;4.00;99.90
19000;DHT22;9633;50.980;13.850;2023-04-22T03:43:50;4.00;99.90
19000;DHT22;9633;50.980;13.850;2023-04-22T03:45:25;3.90;99.90
19000;DHT22;9633;50.980;13.850;2023-04-22T03:47:12;3.90;99.90
19000;DHT22;9633;50.980;13.850;2023-04-22T03:48:51;3.90;99.90
19000;DHT22;9633;50.980;13.850;2023-04-22T03:50:32;3.90;99.90
19000;DHT22;9633;50.980;13.850;2023-04-22T03:52:05;3.90;99.90
19000;DHT22;9633;50.980;13.850;2023-04-22T03:53:41;3.80;99.90
19000;DHT22;9633;50.980;13.850;2023-04-22T03:55:16;4.20;99.90
19000;DHT22;9633;50.980;13.850;2023-04-22T03:56:50;4.30;99.90
19000;DHT22;9633;50.980;13.850;2023-04-22T03:58:25;4.30;99.90
19000;DHT22;9633;50.980;13.850;2023-04-22T03:59:58;4.30;99.90
19000;DHT22;9633;50.980;13.850;2023-04-22T04:01:32;4.40;99.90
19000;DHT22;9633;50.980;13.850;2023-04-22T04:03:09;4.40;99.90
19000;DHT22;9633;50.980;13.850;2023-04-22T04:04:43;4.50;99.90
19000;DHT22;9633;50.980;13.850;2023-04-22T04:06:17;4.50;99.90
19000;DHT22;9633;50.980;13.850;2023-04-22T04:07:50;4.50;99.90
19000;DHT22;9633;50.980;13.850;2023-04-22T04:09:23;4.60;99.90
19000;DHT22;9633;50.980;13.850;2023-04-22T04:10:57;4.80;99.90
19000;DHT22;9633;50.980;13.850;2023-04-22T04:12:31;4.90;99.90
19000;DHT22;9633;50.980;13.850;2023-04-22T04:14:04;4.80;99.90
19000;DHT22;9633;50.980;13.850;2023-04-22T04:15:46;4.70;99.90
19000;DHT22;9633;50.980;13.850;2023-04-22T04:17:23;4.50;99.90
19000;DHT22;9633;50.980;13.850;2023-04-22T04:18:58;4.50;99.90
19000;DHT22;9633;50.980;13.850;2023-04-22T04:20:31;4.40;99.90
19000;DHT22;9633;50.980;13.850;2023-04-22T04:22:05;4.40;99.90
19000;DHT22;9633;50.980;13.850;2023-04-22T04:23:42;4.40;99.90
19000;DHT22;9633;50.980;13.850;2023-04-22T04:25:16;4.30;99.90
19000;DHT22;9633;50.980;13.850;2023-04-22T04:26:52;4.20;99.90
19000;DHT22;9633;50.980;13.850;2023-04-22T04:28:31;4.20;99.90
19000;DHT22;9633;50.980;13.850;2023-04-22T04:30:07;4.20;99.90
19000;DHT22;9633;50.980;13.850;2023-04-22T04:31:51;4.20;99.90
19000;DHT22;9633;50.980;13.850;2023-04-22T04:33:26;4.20;99.90
19000;DHT22;9633;50.980;13.850;2023-04-22T04:34:59;4.30;99.90
19000;DHT22;9633;50.980;13.850;2023-04-22T04:36:34;4.40;99.90
19000;DHT22;9633;50.980;13.850;2023-04-22T04:38:17;4.40;99.90
19000;DHT22;9633;50.980;13.850;2023-04-22T04:39:51;4.50;99.90
19000;DHT22;9633;50.980;13.850;2023-04-22T04:41:27;4.60;99.90
19000;DHT22;9633;50.980;13.850;2023-04-22T04:43:03;4.70;99.90
19000;DHT22;9633;50.980;13.850;2023-04-22T04:44:49;4.80;99.90
19000;DHT22;9633;50.980;13.850;2023-04-22T04:46:24;4.90;99.90
19000;DHT22;9633;50.980;13.850;2023-04-22T04:48:00;5.00;99.90
19000;DHT22;9633;50.980;13.850;2023-04-22T04:49:40;5.10;99.90
19000;DHT22;9633;50.980;13.850;2023-04-22T04:51:14;5.20;99.90
19000;DHT22;9633;50.980;13.850;2023-04-22T04:52:58;5.40;99.90
19000;DHT22;9633;50.980;13.850;2023-04-22T04:54:37;5.60;99.90
19000;DHT22;9633;50.980;13.850;2023-04-22T04:56:10;5.80;99.90
19000;DHT22;9633;50.980;13.850;2023-04-22T04:57:44;6.00;99.90
19000;DHT22;9633;50.980;13.850;2023-04-22T04:59:18;6.20;99.90
19000;DHT22;9633;50.980;13.850;2023-04-22T05:00:51;6.30;99.90
19000;DHT22;9633;50.980;13.850;2023-04-22T05:02:25;6.50;99.90
19000;DHT22;9633;50.980;13.850;2023-04-22T05:03:58;6.70;99.90
19000;DHT22;9633;50.980;13.850;2023-04-22T05:05:32;6.80;99.90
19000;DHT22;9633;50.980;13.850;2023-04-22T05:07:06;7.00;99.90
19000;DHT22;9633;50.980;13.850;2023-04-22T05:08:41;7.30;99.90
19000;DHT22;9633;50.980;13.850;2023-04-22T05:10:15;7.60;99.90
19000;DHT22;9633;50.980;13.850;2023-04-22T05:11:48;7.80;99.90
19000;DHT22;9633;50.980;13.850;2023-04-22T05:13:24;7.90;99.90
19000;DHT22;9633;50.980;13.850;2023-04-22T05:14:59;8.00;99.90
19000;DHT22;9633;50.980;13.850;2023-04-22T05:16:32;8.10;99.90
19000;DHT22;9633;50.980;13.850;2023-04-22T05:18:05;8.30;99.90
19000;DHT22;9633;50.980;13.850;2023-04-22T05:19:38;8.40;99.90
19000;DHT22;9633;50.980;13.850;2023-04-22T05:21:13;8.50;99.90
19000;DHT22;9633;50.980;13.850;2023-04-22T05:22:48;8.60;99.90
19000;DHT22;9633;50.980;13.850;2023-04-22T05:24:22;8.70;99.90
19000;DHT22;9633;50.980;13.850;2023-04-22T05:25:55;8.80;99.90
19000;DHT22;9633;50.980;13.850;2023-04-22T05:27:28;8.90;99.90
19000;DHT22;9633;50.980;13.850;2023-04-22T05:29:02;9.00;99.90
19000;DHT22;9633;50.980;13.850;2023-04-22T05:30:36;9.20;99.90
19000;DHT22;9633;50.980;13.850;2023-04-22T05:32:09;9.30;99.90
19000;DHT22;9633;50.980;13.850;2023-04-22T05:33:43;9.40;99.90
19000;DHT22;9633;50.980;13.850;2023-04-22T05:35:16;9.50;99.90
19000;DHT22;9633;50.980;13.850;2023-04-22T05:36:51;9.60;99.90
19000;DHT22;9633;50.980;13.850;2023-04-22T05:38:25;9.80;99.90
19000;DHT22;9633;50.980;13.850;2023-04-22T05:39:59;10.10;99.90
19000;DHT22;9633;50.980;13.850;2023-04-22T05:41:33;11.10;96.80
19000;DHT22;9633;50.980;13.850;2023-04-22T05:43:08;12.60;95.40
19000;DHT22;9633;50.980;13.850;2023-04-22T05:44:44;14.00;85.80
19000;DHT22;9633;50.980;13.850;2023-04-22T05:46:16;15.50;83.40
19000;DHT22;9633;50.980;13.850;2023-04-22T05:47:50;16.20;80.40
19000;DHT22;9633;50.980;13.850;2023-04-22T05:49:24;16.90;92.00
19000;DHT22;9633;50.980;13.850;2023-04-22T05:51:06;17.50;97.50
19000;DHT22;9633;50.980;13.850;2023-04-22T05:52:41;17.70;99.90
19000;DHT22;9633;50.980;13.850;2023-04-22T05:54:18;17.90;99.90
19000;DHT22;9633;50.980;13.850;2023-04-22T05:55:52;18.60;99.90
19000;DHT22;9633;50.980;13.850;2023-04-22T05:57:25;18.90;99.90
19000;DHT22;9633;50.980;13.850;2023-04-22T05:58:58;19.30;99.90
19000;DHT22;9633;50.980;13.850;2023-04-22T06:00:31;19.80;99.90
19000;DHT22;9633;50.980;13.850;2023-04-22T06:02:18;20.00;99.90
19000;DHT22;9633;50.980;13.850;2023-04-22T06:03:51;20.40;99.90
19000;DHT22;9633;50.980;13.850;2023-04-22T06:05:24;20.60;99.90
19000;DHT22;9633;50.980;13.850;2023-04-22T06:06:58;20.60;99.90
19000;DHT22;9633;50.980;13.850;2023-04-22T06:08:33;20.70;99.90
19000;DHT22;9633;50.980;13.850;2023-04-22T06:10:07;20.60;99.90
19000;DHT22;9633;50.980;13.850;2023-04-22T06:11:40;20.50;99.90
19000;DHT22;9633;50.980;13.850;2023-04-22T06:13:14;20.60;99.90
19000;DHT22;9633;50.980;13.850;2023-04-22T06:14:47;20.50;99.90
19000;DHT22;9633;50.980;13.850;2023-04-22T06:16:21;20.40;99.90
19000;DHT22;9633;50.980;13.850;2023-04-22T06:17:54;20.60;99.90
19000;DHT22;9633;50.980;13.850;2023-04-22T06:19:27;20.80;99.90
19000;DHT22;9633;50.980;13.850;2023-04-22T06:21:00;21.30;99.90
19000;DHT22;9633;50.980;13.850;2023-04-22T06:22:32;21.80;99.90
19000;DHT22;9633;50.980;13.850;2023-04-22T06:24:07;22.10;99.90
19000;DHT22;9633;50.980;13.850;2023-04-22T06:25:41;21.90;99.90
19000;DHT22;9633;50.980;13.850;2023-04-22T06:27:14;21.90;99.90
19000;DHT22;9633;50.980;13.850;2023-04-22T06:28:47;22.30;99.90
19000;DHT22;9633;50.980;13.850;2023-04-22T06:30:24;22.20;99.90
19000;DHT22;9633;50.980;13.850;2023-04-22T06:31:57;22.20;99.90
19000;DHT22;9633;50.980;13.850;2023-04-22T06:33:30;22.70;99.90
19000;DHT22;9633;50.980;13.850;2023-04-22T06:35:06;23.00;99.90
19000;DHT22;9633;50.980;13.850;2023-04-22T06:36:39;22.80;99.90
19000;DHT22;9633;50.980;13.850;2023-04-22T06:38:12;22.90;99.90
19000;DHT22;9633;50.980;13.850;2023-04-22T06:39:57;22.90;99.90
19000;DHT22;9633;50.980;13.850;2023-04-22T06:42:03;23.60;99.90
19000;DHT22;9633;50.980;13.850;2023-04-22T06:44:02;24.30;99.90
19000;DHT22;9633;50.980;13.850;2023-04-22T06:46:05;24.30;99.90
19000;DHT22;9633;50.980;13.850;2023-04-22T06:47:56;23.50;99.90
19000;DHT22;9633;50.980;13.850;2023-04-22T06:49:40;23.10;99.90
19000;DHT22;9633;50.980;13.850;2023-04-22T06:51:40;23.20;99.90
19000;DHT22;9633;50.980;13.850;2023-04-22T06:53:13;23.10;99.90
19000;DHT22;9633;50.980;13.850;2023-04-22T06:54:46;23.30;99.90
19000;DHT22;9633;50.980;13.850;2023-04-22T06:56:20;23.20;99.90
19000;DHT22;9633;50.980;13.850;2023-04-22T06:57:54;22.90;99.90
19000;DHT22;9633;50.980;13.850;2023-04-22T06:59:27;22.30;99.90
19000;DHT22;9633;50.980;13.850;2023-04-22T07:01:00;22.00;99.90
19000;DHT22;9633;50.980;13.850;2023-04-22T07:02:33;21.60;99.90
19000;DHT22;9633;50.980;13.850;2023-04-22T07:04:06;21.50;99.90
19000;DHT22;9633;50.980;13.850;2023-04-22T07:05:39;21.40;99.90
19000;DHT22;9633;50.980;13.850;2023-04-22T07:07:13;21.90;99.90
19000;DHT22;9633;50.980;13.850;2023-04-22T07:08:46;22.50;99.90
19000;DHT22;9633;50.980;13.850;2023-04-22T07:10:19;23.40;99.90
19000;DHT22;9633;50.980;13.850;2023-04-22T07:12:14;24.30;99.90
19000;DHT22;9633;50.980;13.850;2023-04-22T07:13:47;24.80;99.90
19000;DHT22;9633;50.980;13.850;2023-04-22T07:15:20;24.70;99.90
19000;DHT22;9633;50.980;13.850;2023-04-22T07:16:53;24.80;99.90
19000;DHT22;9633;50.980;13.850;2023-04-22T07:18:27;24.90;99.90
19000;DHT22;9633;50.980;13.850;2023-04-22T07:20:00;24.70;99.90
19000;DHT22;9633;50.980;13.850;2023-04-22T07:21:33;25.00;99.90
19000;DHT22;9633;50.980;13.850;2023-04-22T07:23:07;25.10;99.90
19000;DHT22;9633;50.980;13.850;2023-04-22T07:24:39;24.60;99.90
19000;DHT22;9633;50.980;13.850;2023-04-22T07:26:13;24.20;99.90
19000;DHT22;9633;50.980;13.850;2023-04-22T07:27:47;24.00;99.90
19000;DHT22;9633;50.980;13.850;2023-04-22T07:29:20;23.70;99.90
19000;DHT22;9633;50.980;13.850;2023-04-22T07:30:53;24.10;99.90
19000;DHT22;9633;50.980;13.850;2023-04-22T07:32:27;24.30;99.90
19000;DHT22;9633;50.980;13.850;2023-04-22T07:34:00;24.30;99.90
19000;DHT22;9633;50.980;13.850;2023-04-22T07:35:33;24.30;99.90
19000;DHT22;9633;50.980;13.850;2023-04-22T07:37:06;24.40;99.90
19000;DHT22;9633;50.980;13.850;2023-04-22T07:38:40;24.50;99.90
19000;DHT22;9633;50.980;13.850;2023-04-22T07:40:13;24.30;99.90
19000;DHT22;9633;50.980;13.850;2023-04-22T07:41:46;24.30;99.90
19000;DHT22;9633;50.980;13.850;2023-04-22T07:43:21;24.20;99.90
19000;DHT22;9633;50.980;13.850;2023-04-22T07:44:54;23.70;99.90
19000;DHT22;9633;50.980;13.850;2023-04-22T07:46:27;23.90;99.90
19000;DHT22;9633;50.980;13.850;2023-04-22T07:48:00;23.30;99.90
19000;DHT22;9633;50.980;13.850;2023-04-22T07:49:33;23.00;99.90
19000;DHT22;9633;50.980;13.850;2023-04-22T07:51:07;22.60;99.90
19000;DHT22;9633;50.980;13.850;2023-04-22T07:52:40;22.40;99.90
19000;DHT22;9633;50.980;13.850;2023-04-22T07:54:13;22.30;99.90
19000;DHT22;9633;50.980;13.850;2023-04-22T07:55:46;22.40;99.90
19000;DHT22;9633;50.980;13.850;2023-04-22T07:57:20;22.40;99.90
19000;DHT22;9633;50.980;13.850;2023-04-22T07:58:54;22.30;99.90
19000;DHT22;9633;50.980;13.850;2023-04-22T08:00:28;22.20;99.90
19000;DHT22;9633;50.980;13.850;2023-04-22T08:02:01;21.80;99.90
19000;DHT22;9633;50.980;13.850;2023-04-22T08:03:34;21.60;99.90
19000;DHT22;9633;50.980;13.850;2023-04-22T08:05:08;21.40;99.90
19000;DHT22;9633;50.980;13.850;2023-04-22T08:06:42;21.00;99.90
19000;DHT22;9633;50.980;13.850;2023-04-22T08:08:15;20.90;99.90
19000;DHT22;9633;50.980;13.850;2023-04-22T08:09:48;20.90;99.90
19000;DHT22;9633;50.980;13.850;2023-04-22T08:11:21;21.10;99.90
19000;DHT22;9633;50.980;13.850;2023-04-22T08:12:54;21.20;99.90
19000;DHT22;9633;50.980;13.850;2023-04-22T08:14:28;21.20;99.90
19000;DHT22;9633;50.980;13.850;2023-04-22T08:16:01;21.40;99.90
19000;DHT22;9633;50.980;13.850;2023-04-22T08:17:34;21.70;99.90
19000;DHT22;9633;50.980;13.850;2023-04-22T08:19:08;21.80;99.90
19000;DHT22;9633;50.980;13.850;2023-04-22T08:20:41;21.80;99.90
19000;DHT22;9633;50.980;13.850;2023-04-22T08:22:13;21.70;99.90
19000;DHT22;9633;50.980;13.850;2023-04-22T08:23:46;21.70;99.90
19000;DHT22;9633;50.980;13.850;2023-04-22T08:25:20;21.70;99.90
19000;DHT22;9633;50.980;13.850;2023-04-22T08:26:53;21.80;99.90
19000;DHT22;9633;50.980;13.850;2023-04-22T08:28:26;22.10;99.90
19000;DHT22;9633;50.980;13.850;2023-04-22T08:30:00;22.40;99.90
19000;DHT22;9633;50.980;13.850;2023-04-22T08:31:33;22.40;99.90
19000;DHT22;9633;50.980;13.850;2023-04-22T08:33:07;22.60;99.90
19000;DHT22;9633;50.980;13.850;2023-04-22T08:34:40;22.60;99.90
19000;DHT22;9633;50.980;13.850;2023-04-22T08:36:13;22.80;99.90
19000;DHT22;9633;50.980;13.850;2023-04-22T08:37:46;23.20;99.90
19000;DHT22;9633;50.980;13.850;2023-04-22T08:39:19;23.40;99.90
19000;DHT22;9633;50.980;13.850;2023-04-22T08:40:55;23.50;99.90
19000;DHT22;9633;50.980;13.850;2023-04-22T08:42:29;23.30;99.90
19000;DHT22;9633;50.980;13.850;2023-04-22T08:44:04;23.20;99.90
19000;DHT22;9633;50.980;13.850;2023-04-22T08:45:39;23.20;99.90
19000;DHT22;9633;50.980;13.850;2023-04-22T08:47:13;23.20;99.90
19000;DHT22;9633;50.980;13.850;2023-04-22T08:48:46;23.30;99.90
19000;DHT22;9633;50.980;13.850;2023-04-22T08:50:20;23.40;99.90
19000;DHT22;9633;50.980;13.850;2023-04-22T08:51:54;23.50;99.90
19000;DHT22;9633;50.980;13.850;2023-04-22T08:53:27;23.50;99.90
19000;DHT22;9633;50.980;13.850;2023-04-22T08:55:01;23.40;99.90
19000;DHT22;9633;50.980;13.850;2023-04-22T08:56:35;23.30;99.90
19000;DHT22;9633;50.980;13.850;2023-04-22T08:58:10;23.20;99.90
19000;DHT22;9633;50.980;13.850;2023-04-22T08:59:44;23.30;99.90
19000;DHT22;9633;50.980;13.850;2023-04-22T09:01:18;23.50;99.90
19000;DHT22;9633;50.980;13.850;2023-04-22T09:02:52;23.70;99.90
19000;DHT22;9633;50.980;13.850;2023-04-22T09:04:26;23.80;99.90
19000;DHT22;9633;50.980;13.850;2023-04-22T09:06:01;23.80;99.90
19000;DHT22;9633;50.980;13.850;2023-04-22T09:07:35;23.50;99.90
19000;DHT22;9633;50.980;13.850;2023-04-22T09:09:10;23.30;99.90
19000;DHT22;9633;50.980;13.850;2023-04-22T09:10:43;23.00;99.90
19000;DHT22;9633;50.980;13.850;2023-04-22T09:12:16;22.90;99.90
19000;DHT22;9633;50.980;13.850;2023-04-22T09:13:49;23.00;99.90
19000;DHT22;9633;50.980;13.850;2023-04-22T09:15:23;23.20;99.90
19000;DHT22;9633;50.980;13.850;2023-04-22T09:16:58;23.20;99.90
19000;DHT22;9633;50.980;13.850;2023-04-22T09:18:38;23.50;99.90
19000;DHT22;9633;50.980;13.850;2023-04-22T09:20:11;24.00;99.90
19000;DHT22;9633;50.980;13.850;2023-04-22T09:21:46;23.90;99.90
19000;DHT22;9633;50.980;13.850;2023-04-22T09:23:23;23.90;99.90
19000;DHT22;9633;50.980;13.850;2023-04-22T09:24:56;23.80;99.90
19000;DHT22;9633;50.980;13.850;2023-04-22T09:26:30;24.00;99.90
19000;DHT22;9633;50.980;13.850;2023-04-22T09:28:03;24.30;99.90
19000;DHT22;9633;50.980;13.850;2023-04-22T09:29:36;24.30;99.90
19000;DHT22;9633;50.980;13.850;2023-04-22T09:31:12;24.10;99.90
19000;DHT22;9633;50.980;13.850;2023-04-22T09:32:54;24.10;99.90
19000;DHT22;9633;50.980;13.850;2023-04-22T09:34:28;24.60;99.90
19000;DHT22;9633;50.980;13.850;2023-04-22T09:36:08;25.40;99.90
19000;DHT22;9633;50.980;13.850;2023-04-22T09:37:41;25.80;99.90
19000;DHT22;9633;50.980;13.850;2023-04-22T09:39:22;25.40;99.90
19000;DHT22;9633;50.980;13.850;2023-04-22T09:40:55;25.30;99.90
19000;DHT22;9633;50.980;13.850;2023-04-22T09:42:28;24.80;99.90
19000;DHT22;9633;50.980;13.850;2023-04-22T09:44:03;24.40;99.90
19000;DHT22;9633;50.980;13.850;2023-04-22T09:45:38;24.10;99.90
19000;DHT22;9633;50.980;13.850;2023-04-22T09:47:11;24.20;99.90
19000;DHT22;9633;50.980;13.850;2023-04-22T09:48:46;23.90;99.90
19000;DHT22;9633;50.980;13.850;2023-04-22T09:50:23;23.60;99.90
19000;DHT22;9633;50.980;13.850;2023-04-22T09:51:57;24.20;99.90
19000;DHT22;9633;50.980;13.850;2023-04-22T09:53:36;24.50;99.90
19000;DHT22;9633;50.980;13.850;2023-04-22T09:55:09;24.20;99.90
19000;DHT22;9633;50.980;13.850;2023-04-22T09:56:44;24.30;99.90
19000;DHT22;9633;50.980;13.850;2023-04-22T09:58:19;24.30;99.90
19000;DHT22;9633;50.980;13.850;2023-04-22T09:59:57;24.30;99.90
19000;DHT22;9633;50.980;13.850;2023-04-22T10:01:34;24.10;99.90
19000;DHT22;9633;50.980;13.850;2023-04-22T10:03:08;24.10;99.90